Decoded Metar for KFFA (KILL DEVIL HILLS in NC, USA) (IATA:FFA) | Meteo·Mobile Aviation Weather
aviador You're here:

KFFA Decoded Metar

KILL DEVIL HILLS in NC, USA
Report Time2019-10-22 13:55:00
UTC Time2019-10-22 14:18:03
Flight Rules vfr VFR
WindCalm
Visibility9999 m
Phenomena:N/A
Clouds:N/A
Expected CloudBase > 800 ft AGL from Temp-Dew spread
CeilingNone
Temp18°C (ISA +3)
Dew Point16°C (88% RH)
QNH1016 hPa
Density Alt509 ft
Elevation13 ft
Report Wrong Elevation
Raw Report
METAR KFFA 221355Z AUTO 00000KT 10SM CLR 18/16 A3000 RMK AO2 T01780160=

Extra information for KFFA:More info

Metar Taf Metar & Taf Last 4 Metars F.Rules Stats Wind Profile Meteogram Temp Stats Airport Information Weather charts Add Link Nearby VenuesMetar ALERT Operation Metar Decoded Social comments

AIRNAV info for KFFA